Time;durP1;ratioP1;P1;durP2;ratioP2;P2;SDS_P1;SDS_P2;PMS_P1;PMS_P2;Temp;Humidity;BMP_temperature;BMP_pressure;BME280_temperature;BME280_humidity;BME280_pressure;Samples;Min_cycle;Max_cycle;Signal;HPM_P1;HPM_P2
2023/03/27 00:02:10;;;;;;;4.20;2.20;;;23.30;59.10;;;;;;222216;1256;22557;-49
2023/03/27 00:07:15;;;;;;;3.30;2.10;;;23.30;59.10;;;;;;221968;1253;24351;-45
2023/03/27 00:12:19;;;;;;;3.50;2.50;;;23.30;58.80;;;;;;222030;1262;25591;-49
2023/03/27 00:17:23;;;;;;;3.90;2.40;;;23.30;58.80;;;;;;225093;1257;22589;-47
2023/03/27 00:22:28;;;;;;;2.90;2.30;;;23.30;59.00;;;;;;222214;1256;22512;-49
2023/03/27 00:27:32;;;;;;;4.20;2.20;;;23.20;59.20;;;;;;221775;1256;22633;-50
2023/03/27 00:32:37;;;;;;;4.20;2.50;;;23.10;59.30;;;;;;230043;1262;22493;-48
2023/03/27 00:37:41;;;;;;;2.60;2.00;;;23.20;59.00;;;;;;229823;1262;22626;-52
2023/03/27 00:42:47;;;;;;;3.60;2.00;;;23.30;58.90;;;;;;222016;1257;22635;-47
2023/03/27 00:48:03;;;;;;;3.70;2.10;;;23.20;58.60;;;;;;230129;1262;22429;-50
2023/03/27 00:53:12;;;;;;;4.20;2.20;;;23.20;58.50;;;;;;226144;1262;25224;-49
2023/03/27 00:58:21;;;;;;;3.70;2.40;;;23.20;58.40;;;;;;222175;1262;22521;-49
2023/03/27 01:03:30;;;;;;;3.10;1.80;;;23.00;59.00;;;;;;222147;1262;22648;-47
2023/03/27 01:08:38;;;;;;;3.40;2.00;;;22.90;59.40;;;;;;222357;1255;22644;-50
2023/03/27 01:14:01;;;;;;;3.60;2.00;;;22.70;59.80;;;;;;222439;1257;22517;-49
2023/03/27 01:19:43;;;;;;;3.50;2.00;;;22.60;59.90;;;;;;222301;1255;22517;-54
2023/03/27 01:24:56;;;;;;;3.10;2.20;;;22.50;60.50;;;;;;222477;1253;25204;-51
2023/03/27 01:30:04;;;;;;;2.50;1.90;;;22.50;60.60;;;;;;222278;1255;25375;-47
2023/03/27 01:35:22;;;;;;;5.40;1.80;;;22.50;60.80;;;;;;222249;1255;22633;-47
2023/03/27 01:40:49;;;;;;;2.30;1.70;;;22.40;60.50;;;;;;222080;1255;24358;-50
2023/03/27 01:46:07;;;;;;;1.70;1.60;;;22.40;60.60;;;;;;222173;1254;22914;-52
2023/03/27 01:51:31;;;;;;;2.30;1.70;;;22.30;60.50;;;;;;222100;1256;24197;-47
2023/03/27 01:56:50;;;;;;;3.10;1.80;;;22.30;60.60;;;;;;222039;1255;22567;-51
2023/03/27 02:02:00;;;;;;;2.00;1.80;;;22.30;61.00;;;;;;221883;1255;24252;-51
2023/03/27 02:07:11;;;;;;;2.30;2.00;;;22.30;60.80;;;;;;222043;1255;22570;-49
2023/03/27 02:12:22;;;;;;;2.70;1.80;;;22.10;60.30;;;;;;221926;1258;22639;-50
2023/03/27 02:17:27;;;;;;;1.70;1.50;;;22.10;61.10;;;;;;222011;1262;22514;-49
2023/03/27 02:22:31;;;;;;;2.00;1.80;;;22.10;60.40;;;;;;222051;1262;25434;-51
2023/03/27 02:27:46;;;;;;;3.30;1.70;;;22.00;60.80;;;;;;222172;1254;25069;-49
2023/03/27 02:33:13;;;;;;;2.50;1.80;;;22.00;61.10;;;;;;222244;1256;25450;-50
2023/03/27 02:38:36;;;;;;;3.20;2.00;;;22.00;61.50;;;;;;222242;1262;22725;-49
2023/03/27 02:43:59;;;;;;;;;;;22.00;61.10;;;;;;222022;1255;24335;-49
2023/03/27 02:49:45;;;;;;;2.70;1.50;;;22.00;61.10;;;;;;221911;1262;23969;-48
2023/03/27 02:54:56;;;;;;;2.30;1.70;;;22.00;61.00;;;;;;222199;1257;22644;-50
2023/03/27 03:00:03;;;;;;;3.30;2.20;;;22.00;60.90;;;;;;221999;1258;25371;-48
2023/03/27 03:05:19;;;;;;;2.20;1.90;;;21.90;60.80;;;;;;222318;1247;24188;-49
2023/03/27 03:10:25;;;;;;;3.40;1.90;;;21.90;60.90;;;;;;222341;1255;26932;-49
2023/03/27 03:15:30;;;;;;;2.30;2.10;;;21.90;61.20;;;;;;222294;1262;22761;-46
2023/03/27 03:20:34;;;;;;;2.90;2.00;;;21.90;61.00;;;;;;222151;1255;25400;-50
2023/03/27 03:25:40;;;;;;;3.60;2.00;;;21.90;61.00;;;;;;222167;1254;25721;-53
2023/03/27 03:30:49;;;;;;;2.30;2.10;;;22.00;61.40;;;;;;221950;1255;25387;-47
2023/03/27 03:35:53;;;;;;;2.30;2.10;;;22.20;60.40;;;;;;222088;1260;25394;-48
2023/03/27 03:41:04;;;;;;;2.10;1.80;;;22.50;59.90;;;;;;225004;1265;22632;-49
2023/03/27 03:46:09;;;;;;;2.60;2.20;;;22.90;58.90;;;;;;222341;1255;24248;-51
2023/03/27 03:51:13;;;;;;;3.70;2.10;;;23.10;58.00;;;;;;222080;1255;25410;-51
2023/03/27 03:56:17;;;;;;;3.00;2.10;;;23.20;57.90;;;;;;222209;1253;22508;-48
2023/03/27 04:01:24;;;;;;;2.10;1.90;;;23.20;57.60;;;;;;222011;1263;22518;-53
2023/03/27 04:06:36;;;;;;;2.30;2.10;;;23.30;57.40;;;;;;221980;1262;24556;-49
2023/03/27 04:11:41;;;;;;;1.70;1.60;;;23.30;57.10;;;;;;222229;1256;25385;-51
2023/03/27 04:16:51;;;;;;;2.40;1.90;;;23.40;57.30;;;;;;222174;1265;22543;-52
2023/03/27 04:22:03;;;;;;;4.10;1.90;;;23.40;57.20;;;;;;222238;1262;22563;-49
2023/03/27 04:27:11;;;;;;;3.30;1.90;;;23.40;56.90;;;;;;222135;1265;22575;-48
2023/03/27 04:32:26;;;;;;;2.10;1.90;;;23.50;56.90;;;;;;222243;1262;24229;-50
2023/03/27 04:38:05;;;;;;;2.10;1.60;;;23.60;56.50;;;;;;222353;1262;22566;-51
2023/03/27 04:43:24;;;;;;;2.20;2.00;;;23.60;56.40;;;;;;222637;1263;22651;-49
2023/03/27 04:48:29;;;;;;;2.30;1.90;;;23.50;56.60;;;;;;222238;1253;24375;-50
2023/03/27 04:53:36;;;;;;;1.80;1.60;;;23.50;56.60;;;;;;222339;1255;22519;-50
2023/03/27 04:58:45;;;;;;;2.20;2.00;;;23.30;56.80;;;;;;222394;1265;22529;-49
2023/03/27 05:03:52;;;;;;;2.20;1.50;;;23.20;57.20;;;;;;222436;1254;24231;-48
2023/03/27 05:09:11;;;;;;;2.90;1.60;;;23.20;57.20;;;;;;222209;1245;24177;-49
2023/03/27 05:14:17;;;;;;;2.60;1.90;;;23.00;57.10;;;;;;222445;1253;22508;-48
2023/03/27 05:19:22;;;;;;;1.90;1.60;;;22.90;57.10;;;;;;222359;1261;22640;-50
2023/03/27 05:24:33;;;;;;;2.50;1.80;;;22.80;56.70;;;;;;222345;1262;22653;-52
2023/03/27 05:29:38;;;;;;;1.70;1.50;;;22.80;56.40;;;;;;222289;1263;25375;-47
2023/03/27 05:34:53;;;;;;;2.70;1.80;;;22.70;56.80;;;;;;222227;1260;22591;-50
2023/03/27 05:39:59;;;;;;;2.30;1.60;;;22.60;56.80;;;;;;222346;1254;22523;-49
2023/03/27 05:45:04;;;;;;;2.20;2.00;;;22.60;57.50;;;;;;222325;1260;25509;-48
2023/03/27 05:50:08;;;;;;;2.10;1.70;;;22.50;57.10;;;;;;222206;1260;24490;-53
2023/03/27 05:55:16;;;;;;;2.70;1.40;;;22.40;58.00;;;;;;222472;1260;24229;-52
2023/03/27 06:00:26;;;;;;;2.90;1.60;;;22.30;58.20;;;;;;222389;1262;22507;-53
2023/03/27 06:05:31;;;;;;;5.10;1.30;;;22.30;58.30;;;;;;222273;1265;24180;-52
2023/03/27 06:10:40;;;;;;;3.20;1.50;;;22.20;58.30;;;;;;222157;1269;22552;-52
2023/03/27 06:15:56;;;;;;;2.30;1.40;;;22.30;58.20;;;;;;226005;1255;25393;-54
2023/03/27 06:21:26;;;;;;;4.70;2.00;;;22.40;57.80;;;;;;230016;1260;22272;-55
2023/03/27 06:26:35;;;;;;;5.20;1.40;;;22.40;57.90;;;;;;222715;1256;188576;-55
2023/03/27 06:31:39;;;;;;;3.20;1.70;;;22.50;57.60;;;;;;222180;1265;22534;-52
2023/03/27 06:36:48;;;;;;;2.60;1.80;;;22.30;58.90;;;;;;222216;1254;22640;-51
2023/03/27 06:41:53;;;;;;;4.60;1.50;;;22.30;59.20;;;;;;222200;1258;22522;-53
2023/03/27 06:47:06;;;;;;;;;;;22.20;58.90;;;;;;222244;1265;22494;-55
2023/03/27 06:52:24;;;;;;;6.80;1.50;;;22.20;58.80;;;;;;222015;1259;22538;-53
2023/03/27 06:57:32;;;;;;;5.60;1.60;;;22.10;58.90;;;;;;222175;1260;22521;-54
2023/03/27 07:02:38;;;;;;;3.70;1.60;;;22.10;59.10;;;;;;222333;1261;22522;-52
2023/03/27 07:08:06;;;;;;;8.00;1.90;;;22.10;59.20;;;;;;222259;1253;23711;-52
2023/03/27 07:13:26;;;;;;;3.90;1.90;;;21.90;59.30;;;;;;222392;1269;22590;-46
2023/03/27 07:18:33;;;;;;;8.40;1.30;;;22.00;59.20;;;;;;222072;1265;22592;-45
2023/03/27 07:23:37;;;;;;;4.20;2.30;;;21.80;59.20;;;;;;222127;1269;22513;-49
2023/03/27 07:28:44;;;;;;;5.40;2.00;;;21.70;59.00;;;;;;222254;1263;25215;-47
2023/03/27 07:33:50;;;;;;;5.30;1.70;;;21.60;58.70;;;;;;221839;1266;24235;-49
2023/03/27 07:39:02;;;;;;;2.90;1.70;;;21.60;58.70;;;;;;222095;1262;23953;-48
2023/03/27 07:44:06;;;;;;;3.30;2.10;;;21.60;58.30;;;;;;222438;1262;23891;-52
2023/03/27 07:49:19;;;;;;;4.10;1.50;;;22.10;57.20;;;;;;221994;1256;22518;-50
2023/03/27 07:54:46;;;;;;;2.30;1.60;;;22.40;56.10;;;;;;222143;1258;24186;-57
2023/03/27 07:59:53;;;;;;;4.50;1.60;;;22.70;55.60;;;;;;222129;1264;25384;-53
2023/03/27 08:05:08;;;;;;;3.60;1.60;;;22.80;55.30;;;;;;222077;1265;22672;-55
2023/03/27 08:10:13;;;;;;;2.70;1.60;;;22.90;55.00;;;;;;222147;1262;24369;-53
2023/03/27 08:15:28;;;;;;;3.80;1.40;;;23.00;54.70;;;;;;222212;1262;22525;-52
2023/03/27 08:20:34;;;;;;;2.10;1.50;;;23.10;54.50;;;;;;222090;1262;22508;-53
2023/03/27 08:25:38;;;;;;;5.20;2.10;;;23.10;54.40;;;;;;222310;1253;24234;-53
2023/03/27 08:30:43;;;;;;;2.10;1.50;;;23.20;54.30;;;;;;222256;1258;24080;-53
2023/03/27 08:35:49;;;;;;;1.50;1.40;;;23.10;54.30;;;;;;222284;1256;23896;-49
2023/03/27 08:40:59;;;;;;;2.20;1.50;;;23.30;54.10;;;;;;222222;1257;24368;-51
2023/03/27 08:46:39;;;;;;;1.40;1.30;;;23.30;53.80;;;;;;222209;1263;22512;-49
2023/03/27 08:51:51;;;;;;;1.90;1.50;;;23.30;53.70;;;;;;222275;1253;22513;-50
2023/03/27 08:56:57;;;;;;;2.70;1.00;;;23.40;53.90;;;;;;222147;1263;22608;-51
2023/03/27 09:02:28;;;;;;;2.70;1.30;;;23.50;53.60;;;;;;222222;1263;24338;-51
2023/03/27 09:07:40;;;;;;;1.40;1.20;;;23.50;53.30;;;;;;222246;1261;25487;-52
2023/03/27 09:13:14;;;;;;;1.40;1.30;;;23.50;53.30;;;;;;222234;1262;22507;-48
2023/03/27 09:18:29;;;;;;;2.90;1.20;;;23.60;53.30;;;;;;222280;1256;24175;-49
2023/03/27 09:23:45;;;;;;;2.70;1.10;;;23.60;53.20;;;;;;222117;1262;23017;-47
2023/03/27 09:29:24;;;;;;;1.20;1.10;;;23.50;53.30;;;;;;222550;1261;22629;-48
2023/03/27 09:34:35;;;;;;;1.80;1.00;;;23.40;53.50;;;;;;221137;1255;22652;-47
2023/03/27 09:39:43;;;;;;;2.30;1.10;;;23.30;53.70;;;;;;221092;1271;22698;-47
2023/03/27 09:45:09;;;;;;;1.70;1.40;;;23.20;53.90;;;;;;221247;1268;24273;-45
2023/03/27 09:50:33;;;;;;;2.90;1.30;;;23.10;53.70;;;;;;221238;1263;25307;-46
2023/03/27 09:55:57;;;;;;;1.80;1.20;;;23.00;54.00;;;;;;222330;1262;24219;-51
2023/03/27 10:01:14;;;;;;;2.30;1.00;;;22.80;54.30;;;;;;222158;1263;22495;-49
2023/03/27 10:06:26;;;;;;;1.30;1.10;;;22.80;54.50;;;;;;222384;1248;25372;-52
2023/03/27 10:11:38;;;;;;;1.00;0.90;;;22.60;54.90;;;;;;222050;1263;24189;-49
2023/03/27 10:16:48;;;;;;;1.50;1.10;;;22.50;55.00;;;;;;222223;1256;23915;-52
2023/03/27 10:21:55;;;;;;;1.10;1.00;;;22.50;55.20;;;;;;222155;1263;24239;-51
2023/03/27 10:27:05;;;;;;;1.10;1.00;;;22.40;55.30;;;;;;222239;1265;25406;-51
2023/03/27 10:32:10;;;;;;;1.10;1.00;;;22.40;55.40;;;;;;222259;1265;22516;-50
2023/03/27 10:37:40;;;;;;;1.00;0.90;;;22.40;55.30;;;;;;222217;1255;23947;-52
2023/03/27 10:43:16;;;;;;;1.10;1.00;;;22.40;55.30;;;;;;222285;1262;22505;-53
2023/03/27 10:48:30;;;;;;;1.70;1.20;;;22.40;55.10;;;;;;221965;1253;24191;-50
2023/03/27 10:53:47;;;;;;;1.60;1.00;;;22.30;55.20;;;;;;222026;1263;22570;-48
2023/03/27 10:59:13;;;;;;;0.90;0.70;;;22.20;55.30;;;;;;222090;1260;24460;-51
2023/03/27 11:04:38;;;;;;;1.80;1.50;;;22.20;55.30;;;;;;222254;1255;24336;-49
2023/03/27 11:10:01;;;;;;;3.90;0.90;;;22.20;55.20;;;;;;222225;1255;23572;-51
2023/03/27 11:15:17;;;;;;;4.20;1.30;;;22.10;55.10;;;;;;222159;1262;25671;-47
2023/03/27 11:20:32;;;;;;;2.90;0.70;;;22.10;55.20;;;;;;222128;1262;25356;-50
2023/03/27 11:25:48;;;;;;;0.80;0.70;;;22.10;55.10;;;;;;222395;1260;22520;-51
2023/03/27 11:31:22;;;;;;;5.30;1.20;;;22.00;55.00;;;;;;222196;1265;25069;-51
2023/03/27 11:36:38;;;;;;;0.80;0.80;;;22.00;54.90;;;;;;222008;1263;22652;-48
2023/03/27 11:41:56;;;;;;;1.10;0.90;;;22.00;55.00;;;;;;222172;1260;22607;-48
2023/03/27 11:47:19;;;;;;;2.50;0.90;;;22.00;55.00;;;;;;222113;1262;22639;-50
2023/03/27 11:53:00;;;;;;;1.00;0.90;;;21.90;54.90;;;;;;222100;1261;22462;-51
2023/03/27 11:59:04;;;;;;;2.90;0.90;;;21.90;55.10;;;;;;221860;1262;23883;-46
2023/03/27 12:04:43;;;;;;;3.40;1.10;;;21.90;54.90;;;;;;222083;1248;22603;-53
2023/03/27 12:10:24;;;;;;;0.80;0.80;;;21.80;55.20;;;;;;222167;1255;25429;-55
2023/03/27 12:15:55;;;;;;;2.80;0.90;;;22.20;54.00;;;;;;222138;1254;24197;-51
2023/03/27 12:21:33;;;;;;;3.00;0.70;;;22.70;53.00;;;;;;221882;1264;24371;-50
2023/03/27 12:27:22;;;;;;;2.10;0.70;;;23.00;52.10;;;;;;222322;1257;24244;-53
2023/03/27 12:32:39;;;;;;;2.40;0.80;;;23.30;51.80;;;;;;222129;1263;22651;-54
2023/03/27 12:37:58;;;;;;;1.10;0.70;;;23.40;51.50;;;;;;222261;1254;24241;-49
2023/03/27 12:43:19;;;;;;;1.70;0.90;;;23.60;51.40;;;;;;222214;1264;22510;-49
2023/03/27 12:48:25;;;;;;;0.90;0.70;;;23.60;50.70;;;;;;222046;1264;22526;-52
2023/03/27 12:53:33;;;;;;;0.90;0.70;;;23.70;51.00;;;;;;221896;1254;22602;-55
2023/03/27 12:58:48;;;;;;;0.80;0.80;;;23.80;51.20;;;;;;221886;1262;23876;-51
2023/03/27 13:04:04;;;;;;;0.60;0.60;;;23.80;50.90;;;;;;222161;1255;22786;-52
2023/03/27 13:09:52;;;;;;;1.10;0.70;;;23.90;50.60;;;;;;222029;1263;22920;-51
2023/03/27 13:15:19;;;;;;;1.50;0.70;;;23.80;51.10;;;;;;222071;1253;22512;-48
2023/03/27 13:20:51;;;;;;;1.80;0.80;;;23.70;51.30;;;;;;221936;1264;26087;-51
2023/03/27 13:26:47;;;;;;;2.10;0.90;;;23.50;51.00;;;;;;222200;1246;25386;-52
2023/03/27 13:31:56;;;;;;;1.30;0.90;;;23.40;50.40;;;;;;222296;1263;22555;-50
2023/03/27 13:37:10;;;;;;;0.70;0.70;;;23.30;50.70;;;;;;222065;1264;23135;-53
2023/03/27 13:42:42;;;;;;;0.70;0.70;;;23.10;50.90;;;;;;222148;1262;24184;-50
2023/03/27 13:48:09;;;;;;;1.20;0.90;;;23.00;51.30;;;;;;222000;1267;22734;-47
2023/03/27 13:53:37;;;;;;;0.90;0.90;;;23.00;52.80;;;;;;222265;1261;25215;-51
2023/03/27 13:59:15;;;;;;;1.50;1.20;;;23.00;54.60;;;;;;222370;1254;22521;-50
2023/03/27 14:04:37;;;;;;;1.10;0.80;;;23.10;54.20;;;;;;222139;1254;25259;-51
2023/03/27 14:10:09;;;;;;;1.40;1.10;;;23.00;54.50;;;;;;222092;1254;22544;-53
2023/03/27 14:15:46;;;;;;;1.50;1.10;;;23.00;54.60;;;;;;221969;1262;23720;-48
2023/03/27 14:21:08;;;;;;;5.50;2.10;;;22.80;55.80;;;;;;222196;1258;26227;-49
2023/03/27 14:26:21;;;;;;;5.80;2.10;;;22.90;56.40;;;;;;222110;1261;22520;-49
2023/03/27 14:31:34;;;;;;;7.30;3.90;;;22.80;57.40;;;;;;222156;1254;22527;-50
2023/03/27 14:36:47;;;;;;;4.00;2.70;;;22.80;58.20;;;;;;222139;1262;22598;-48
2023/03/27 14:42:15;;;;;;;6.30;2.30;;;22.80;59.20;;;;;;222204;1253;22510;-48
2023/03/27 14:47:23;;;;;;;7.60;2.30;;;22.70;58.80;;;;;;222008;1254;25258;-50
2023/03/27 14:52:34;;;;;;;5.70;2.00;;;22.70;58.50;;;;;;222154;1261;25575;-50
2023/03/27 14:58:08;;;;;;;6.80;2.20;;;22.70;58.10;;;;;;222398;1260;22787;-48
2023/03/27 15:03:18;;;;;;;10.20;2.30;;;22.50;58.20;;;;;;222097;1263;25319;-49
2023/03/27 15:08:25;;;;;;;2.90;2.00;;;22.50;57.80;;;;;;222079;1264;22591;-48
2023/03/27 15:14:01;;;;;;;4.80;2.00;;;22.50;58.00;;;;;;221552;1261;22517;-47
2023/03/27 15:19:18;;;;;;;4.30;1.80;;;22.50;57.20;;;;;;221914;1263;22541;-47
2023/03/27 15:24:25;;;;;;;2.20;1.80;;;22.40;56.90;;;;;;222318;1260;24186;-52
2023/03/27 15:30:06;;;;;;;4.70;2.70;;;22.40;56.70;;;;;;221967;1262;23930;-54
2023/03/27 15:35:24;;;;;;;5.40;2.10;;;22.30;56.40;;;;;;222262;1248;22650;-50
2023/03/27 15:40:43;;;;;;;4.60;1.80;;;22.30;56.10;;;;;;222312;1262;22618;-52
2023/03/27 15:46:12;;;;;;;4.90;1.90;;;22.30;55.90;;;;;;222415;1258;22645;-53
2023/03/27 15:51:20;;;;;;;5.50;1.50;;;22.30;56.00;;;;;;222151;1258;24210;-51
2023/03/27 15:56:40;;;;;;;3.30;1.90;;;22.20;55.60;;;;;;222199;1254;24300;-52
2023/03/27 16:01:52;;;;;;;;;;;22.10;55.40;;;;;;222252;1248;22931;-48
2023/03/27 16:07:08;;;;;;;6.20;1.50;;;22.10;55.60;;;;;;222411;1262;25273;-49
2023/03/27 16:12:15;;;;;;;4.70;2.10;;;22.00;55.50;;;;;;222339;1260;25334;-45
2023/03/27 16:17:27;;;;;;;5.80;1.60;;;22.10;54.90;;;;;;222277;1253;22523;-49
2023/03/27 16:22:37;;;;;;;6.30;2.00;;;22.00;54.90;;;;;;222345;1260;24231;-48
2023/03/27 16:27:53;;;;;;;8.40;1.40;;;22.00;54.90;;;;;;222556;1262;23011;-49
2023/03/27 16:32:59;;;;;;;5.10;1.70;;;21.90;54.80;;;;;;222328;1265;22517;-47
2023/03/27 16:38:04;;;;;;;5.90;1.80;;;21.90;55.00;;;;;;222404;1263;24256;-46
2023/03/27 16:43:09;;;;;;;2.40;1.50;;;21.80;54.90;;;;;;222711;1253;24400;-47
2023/03/27 16:48:15;;;;;;;3.80;1.50;;;21.80;54.70;;;;;;222672;1254;22502;-47
2023/03/27 16:53:20;;;;;;;1.70;1.50;;;21.80;55.00;;;;;;222229;1260;25388;-53
2023/03/27 16:58:24;;;;;;;6.70;1.80;;;21.70;54.60;;;;;;221307;1268;25490;-42
2023/03/27 17:03:29;;;;;;;4.90;1.50;;;21.80;54.20;;;;;;221038;1269;22677;-48
2023/03/27 17:08:36;;;;;;;5.00;1.50;;;21.80;54.00;;;;;;221001;1260;22643;-50
2023/03/27 17:13:40;;;;;;;6.20;1.60;;;21.80;53.80;;;;;;221058;1270;22726;-50
2023/03/27 17:18:48;;;;;;;2.70;1.30;;;21.70;54.20;;;;;;220994;1261;24126;-48
2023/03/27 17:23:53;;;;;;;5.40;1.90;;;21.80;53.70;;;;;;221934;1269;22520;-46
2023/03/27 17:28:59;;;;;;;5.00;1.30;;;21.60;54.50;;;;;;222070;1256;22555;-47
2023/03/27 17:34:06;;;;;;;2.20;1.20;;;21.60;54.20;;;;;;222250;1263;22637;-47
2023/03/27 17:39:12;;;;;;;6.30;1.50;;;21.70;53.70;;;;;;222255;1254;25318;-45
2023/03/27 17:44:16;;;;;;;6.00;1.40;;;21.60;53.80;;;;;;222036;1265;22511;-46
2023/03/27 17:49:24;;;;;;;10.10;1.70;;;21.90;53.00;;;;;;222232;1262;22642;-49
2023/03/27 17:54:30;;;;;;;6.60;1.50;;;22.20;52.60;;;;;;222158;1263;26667;-52
2023/03/27 17:59:37;;;;;;;9.80;2.10;;;22.60;51.90;;;;;;222399;1263;22524;-48
2023/03/27 18:04:42;;;;;;;4.80;1.80;;;22.80;51.10;;;;;;222270;1264;23162;-45
2023/03/27 18:09:48;;;;;;;6.60;1.40;;;23.00;50.80;;;;;;222319;1255;24313;-51
2023/03/27 18:14:55;;;;;;;6.80;1.30;;;23.10;50.60;;;;;;222346;1262;24359;-53
2023/03/27 18:20:01;;;;;;;10.20;1.80;;;23.10;50.40;;;;;;222254;1264;24153;-49
2023/03/27 18:25:08;;;;;;;10.20;1.60;;;23.20;50.40;;;;;;221781;1254;483976;-51
2023/03/27 18:30:16;;;;;;;6.10;1.50;;;23.30;50.40;;;;;;222115;1262;22523;-46
2023/03/27 18:35:30;;;;;;;10.00;2.30;;;23.30;50.50;;;;;;222208;1265;25218;-47
2023/03/27 18:40:38;;;;;;;13.00;2.00;;;23.30;50.60;;;;;;222285;1255;22531;-47
2023/03/27 18:45:46;;;;;;;8.20;2.00;;;23.40;51.30;;;;;;222327;1255;22522;-43
2023/03/27 18:50:57;;;;;;;16.40;1.70;;;23.30;51.30;;;;;;222377;1256;22515;-49
2023/03/27 18:56:04;;;;;;;29.50;3.10;;;23.40;50.50;;;;;;222509;1265;22517;-47
2023/03/27 19:01:11;;;;;;;8.70;2.00;;;23.30;50.80;;;;;;222387;1253;24319;-49
2023/03/27 19:06:18;;;;;;;9.80;1.90;;;23.20;50.60;;;;;;222511;1247;22537;-45
2023/03/27 19:11:24;;;;;;;6.40;1.70;;;23.20;51.10;;;;;;222662;1256;22528;-44
2023/03/27 19:17:13;;;;;;;5.50;1.80;;;23.00;51.50;;;;;;221708;1262;25207;-46
2023/03/27 19:22:39;;;;;;;8.70;2.50;;;22.90;51.30;;;;;;222263;1263;22780;-45
2023/03/27 19:28:05;;;;;;;9.90;2.00;;;22.80;51.60;;;;;;222225;1262;22532;-44
2023/03/27 19:33:12;;;;;;;8.60;2.40;;;22.70;52.10;;;;;;222245;1260;22516;-45
2023/03/27 19:38:19;;;;;;;12.10;4.50;;;22.60;51.50;;;;;;222427;1256;22530;-46
2023/03/27 19:43:29;;;;;;;9.70;3.30;;;22.50;52.00;;;;;;222401;1253;22517;-51
2023/03/27 19:48:36;;;;;;;12.10;3.00;;;22.60;51.60;;;;;;222303;1262;24185;-48
2023/03/27 19:53:47;;;;;;;5.90;3.10;;;22.60;51.90;;;;;;222252;1263;24231;-46
2023/03/27 19:58:58;;;;;;;11.30;3.60;;;22.40;52.00;;;;;;222225;1262;22567;-47
2023/03/27 20:04:05;;;;;;;12.40;3.80;;;22.30;52.50;;;;;;222377;1262;25529;-48
2023/03/27 20:09:13;;;;;;;14.60;4.20;;;22.30;53.60;;;;;;222315;1255;22534;-46
2023/03/27 20:14:20;;;;;;;14.50;4.40;;;22.20;55.50;;;;;;222210;1255;22511;-47
2023/03/27 20:19:29;;;;;;;9.00;3.80;;;22.20;55.80;;;;;;222213;1253;22626;-43
2023/03/27 20:24:39;;;;;;;15.30;3.70;;;22.10;55.70;;;;;;221928;1256;22517;-44
2023/03/27 20:29:46;;;;;;;10.10;3.30;;;22.00;56.20;;;;;;222143;1254;24199;-44
2023/03/27 20:34:51;;;;;;;11.20;3.90;;;21.90;55.80;;;;;;222282;1255;23575;-46
2023/03/27 20:40:00;;;;;;;7.60;3.70;;;21.80;55.60;;;;;;222128;1262;22522;-43
2023/03/27 20:45:06;;;;;;;13.80;4.00;;;21.80;55.70;;;;;;222013;1260;22783;-46
2023/03/27 20:50:14;;;;;;;9.50;3.80;;;21.70;55.60;;;;;;222234;1260;22634;-50
2023/03/27 20:55:18;;;;;;;9.60;4.10;;;21.60;55.60;;;;;;222133;1255;22699;-45
2023/03/27 21:00:37;;;;;;;7.60;3.80;;;21.60;55.60;;;;;;222534;1254;22524;-45
2023/03/27 21:05:41;;;;;;;13.20;4.50;;;21.60;55.70;;;;;;222514;1262;23153;-46
2023/03/27 21:10:52;;;;;;;10.40;4.00;;;21.50;57.20;;;;;;222447;1262;22641;-44
2023/03/27 21:15:56;;;;;;;10.90;4.20;;;21.70;58.90;;;;;;222177;1253;23915;-44
2023/03/27 21:21:01;;;;;;;6.90;3.50;;;22.00;58.10;;;;;;222468;1256;22510;-46
2023/03/27 21:26:06;;;;;;;11.00;3.90;;;22.40;57.30;;;;;;222244;1256;22521;-46
2023/03/27 21:31:11;;;;;;;8.70;3.80;;;22.60;56.50;;;;;;222549;1262;22514;-45
2023/03/27 21:36:15;;;;;;;7.70;3.20;;;22.90;55.90;;;;;;222249;1262;25282;-46
2023/03/27 21:41:19;;;;;;;6.80;3.20;;;23.10;55.40;;;;;;222545;1261;22774;-49
2023/03/27 21:46:23;;;;;;;5.30;3.10;;;23.20;54.80;;;;;;222489;1255;25460;-46
2023/03/27 21:51:28;;;;;;;8.90;3.40;;;23.30;54.70;;;;;;222427;1253;25816;-47
2023/03/27 21:56:32;;;;;;;5.80;3.70;;;23.40;54.30;;;;;;222561;1256;25403;-48
2023/03/27 22:01:37;;;;;;;7.50;3.40;;;23.30;54.40;;;;;;222571;1254;24222;-46
2023/03/27 22:06:43;;;;;;;7.70;3.20;;;23.30;54.30;;;;;;222513;1254;22640;-54
2023/03/27 22:11:47;;;;;;;6.70;3.20;;;23.40;54.20;;;;;;222446;1262;22528;-53
2023/03/27 22:16:51;;;;;;;7.90;3.00;;;23.30;54.50;;;;;;222456;1261;25388;-53
2023/03/27 22:21:55;;;;;;;3.70;2.70;;;23.20;54.90;;;;;;222603;1248;24236;-55
2023/03/27 22:26:59;;;;;;;4.70;2.90;;;23.10;55.00;;;;;;222559;1253;24169;-55
2023/03/27 22:32:04;;;;;;;7.20;3.00;;;23.10;54.80;;;;;;222309;1256;22511;-56
2023/03/27 22:37:08;;;;;;;5.10;3.00;;;22.90;55.00;;;;;;222630;1256;25316;-56
2023/03/27 22:42:12;;;;;;;6.40;2.90;;;22.90;55.10;;;;;;222477;1256;22521;-50
2023/03/27 22:47:16;;;;;;;6.00;2.80;;;22.70;55.30;;;;;;222462;1256;22622;-59
2023/03/27 22:52:20;;;;;;;5.30;3.10;;;22.60;55.70;;;;;;222427;1254;22578;-51
2023/03/27 22:57:24;;;;;;;4.90;2.80;;;22.50;55.90;;;;;;222181;1256;22599;-53
2023/03/27 23:02:28;;;;;;;4.30;2.70;;;22.40;55.80;;;;;;222430;1262;22522;-57
2023/03/27 23:07:33;;;;;;;5.20;3.00;;;22.30;55.80;;;;;;222304;1254;22539;-54
2023/03/27 23:12:37;;;;;;;5.20;2.30;;;22.30;55.90;;;;;;222261;1254;22526;-51
2023/03/27 23:17:41;;;;;;;3.10;2.40;;;22.20;55.80;;;;;;222239;1261;25060;-51
2023/03/27 23:22:45;;;;;;;4.70;2.70;;;22.10;55.90;;;;;;223174;1256;22513;-48
2023/03/27 23:27:49;;;;;;;5.00;3.20;;;22.10;55.80;;;;;;222340;1255;24382;-50
2023/03/27 23:32:52;;;;;;;3.00;2.50;;;22.10;55.90;;;;;;222353;1255;22651;-51
2023/03/27 23:37:57;;;;;;;4.70;2.80;;;22.00;55.90;;;;;;222218;1254;22514;-51
2023/03/27 23:43:01;;;;;;;3.60;2.20;;;22.00;56.10;;;;;;222787;1265;22517;-52
2023/03/27 23:48:05;;;;;;;4.20;2.40;;;21.90;56.50;;;;;;222387;1262;22515;-51
2023/03/27 23:53:10;;;;;;;3.90;2.60;;;21.90;56.20;;;;;;222511;1253;22537;-56
2023/03/27 23:58:14;;;;;;;3.30;2.30;;;21.80;56.80;;;;;;222496;1261;22519;-53
